Time;durP1;ratioP1;P1;durP2;ratioP2;P2;SDS_P1;SDS_P2;PMS_P1;PMS_P2;Temp;Humidity;BMP_temperature;BMP_pressure;BME280_temperature;BME280_humidity;BME280_pressure;Samples;Min_cycle;Max_cycle;Signal;HPM_P1;HPM_P2
2023/10/10 00:00:27;;;;;;;;;;;;;;;14.38;44.89;99904.72;3158047;28;19928;-64
2023/10/10 00:02:04;;;;;;;;;;;;;;;14.43;44.60;99914.91;3155314;28;19924;-64
2023/10/10 00:03:39;;;;;;;;;;;;;;;14.46;44.51;99906.88;3156782;28;19931;-65
2023/10/10 00:05:12;;;;;;;;;;;;;;;14.48;44.52;99920.72;3147361;28;20416;-65
2023/10/10 00:06:44;;;;;;;;;;;;;;;14.48;44.54;99918.13;3153694;28;19929;-64
2023/10/10 00:08:16;;;;;;;;;;;;;;;14.47;44.44;99913.81;3158151;28;19932;-65
2023/10/10 00:09:50;;;;;;;;;;;;;;;14.47;44.69;99905.97;3137624;28;19928;-64
2023/10/10 00:11:21;;;;;;;;;;;;;;;14.48;44.72;99910.25;3158127;28;20028;-64
2023/10/10 00:12:55;;;;;;;;;;;;;;;14.51;44.37;99904.84;3158200;28;19928;-65
2023/10/10 00:14:29;;;;;;;;;;;;;;;14.50;44.37;99900.53;3158033;28;19993;-65
2023/10/10 00:16:05;;;;;;;;;;;;;;;14.49;44.41;99904.06;3158477;28;19994;-65
2023/10/10 00:17:37;;;;;;;;;;;;;;;14.50;44.59;99900.53;3157345;28;19935;-65
2023/10/10 00:19:18;;;;;;;;;;;;;;;14.53;44.73;99900.38;3140806;28;19970;-65
2023/10/10 00:21:06;;;;;;;;;;;;;;;14.54;44.30;99899.44;3143659;28;20007;-65
2023/10/10 00:22:36;;;;;;;;;;;;;;;14.54;44.44;99902.91;3157201;28;20281;-64
2023/10/10 00:24:12;;;;;;;;;;;;;;;14.53;44.72;99900.38;3158105;28;19928;-64
2023/10/10 00:25:44;;;;;;;;;;;;;;;14.52;44.43;99909.16;3154746;28;19924;-64
2023/10/10 00:27:15;;;;;;;;;;;;;;;14.52;44.72;99898.69;3151337;28;19924;-64
2023/10/10 00:28:53;;;;;;;;;;;;;;;14.49;44.83;99902.31;3158396;28;19931;-64
2023/10/10 00:30:31;;;;;;;;;;;;;;;14.50;44.69;99897.91;3158108;28;19931;-64
2023/10/10 00:32:05;;;;;;;;;;;;;;;14.52;44.60;99893.44;3152242;28;19925;-64
2023/10/10 00:33:39;;;;;;;;;;;;;;;14.52;44.82;99903.91;3153777;28;19932;-64
2023/10/10 00:35:11;;;;;;;;;;;;;;;14.55;44.80;99888.88;3157466;28;20042;-64
2023/10/10 00:36:41;;;;;;;;;;;;;;;14.60;44.56;99888.59;3152850;28;19931;-64
2023/10/10 00:38:18;;;;;;;;;;;;;;;14.65;44.41;99886.53;3157970;28;19928;-64
2023/10/10 00:39:52;;;;;;;;;;;;;;;14.68;44.55;99885.50;3158150;28;19946;-64
2023/10/10 00:41:26;;;;;;;;;;;;;;;14.68;44.48;99886.34;3157975;28;20056;-64
2023/10/10 00:42:58;;;;;;;;;;;;;;;14.66;44.67;99882.13;3158201;28;19928;-64
2023/10/10 00:44:33;;;;;;;;;;;;;;;14.66;44.48;99885.59;3149893;28;19934;-64
2023/10/10 00:46:06;;;;;;;;;;;;;;;14.69;44.38;99880.16;3157584;28;20361;-63
2023/10/10 00:47:40;;;;;;;;;;;;;;;14.73;44.55;99865.06;3150586;28;20029;-65
2023/10/10 00:49:16;;;;;;;;;;;;;;;14.76;44.29;99863.13;3155280;28;20014;-65
2023/10/10 00:50:51;;;;;;;;;;;;;;;14.79;44.47;99862.94;3147410;28;20320;-65
2023/10/10 00:52:23;;;;;;;;;;;;;;;14.80;44.34;99874.28;3141891;28;20429;-65
2023/10/10 00:54:09;;;;;;;;;;;;;;;14.83;44.25;99871.47;3153085;28;19924;-64
2023/10/10 00:55:41;;;;;;;;;;;;;;;14.87;44.17;99865.06;3148547;28;19924;-65
2023/10/10 00:57:16;;;;;;;;;;;;;;;14.92;44.25;99862.19;3157699;28;20030;-64
2023/10/10 00:58:48;;;;;;;;;;;;;;;14.96;44.29;99855.78;3157634;28;19924;-64
2023/10/10 01:00:25;;;;;;;;;;;;;;;14.98;44.16;99859.19;3157728;28;19928;-64
2023/10/10 01:01:56;;;;;;;;;;;;;;;14.97;44.29;99850.47;3154135;28;19924;-65
2023/10/10 01:03:30;;;;;;;;;;;;;;;14.96;44.07;99856.63;3157614;28;19935;-65
2023/10/10 01:05:11;;;;;;;;;;;;;;;14.90;44.35;99857.03;3154238;28;19924;-64
2023/10/10 01:06:42;;;;;;;;;;;;;;;14.84;44.50;99856.56;3133516;28;20312;-65
2023/10/10 01:08:17;;;;;;;;;;;;;;;14.74;44.71;99849.28;3157621;28;19928;-65
2023/10/10 01:09:55;;;;;;;;;;;;;;;14.66;44.64;99853.31;3154087;28;19968;-65
2023/10/10 01:11:29;;;;;;;;;;;;;;;14.60;44.74;99848.44;3157713;28;19931;-64
2023/10/10 01:13:00;;;;;;;;;;;;;;;14.57;44.93;99867.81;3158009;28;19955;-65
2023/10/10 01:14:32;;;;;;;;;;;;;;;14.54;45.07;99854.88;3157672;28;19928;-65
2023/10/10 01:16:05;;;;;;;;;;;;;;;14.52;44.84;99860.25;3157665;28;20547;-64
2023/10/10 01:17:38;;;;;;;;;;;;;;;14.54;44.65;99852.25;3157332;28;20374;-64
2023/10/10 01:19:08;;;;;;;;;;;;;;;14.54;44.84;99866.22;3157334;28;19924;-65
2023/10/10 01:20:46;;;;;;;;;;;;;;;14.54;44.74;99852.25;3153775;28;19928;-65
2023/10/10 01:22:22;;;;;;;;;;;;;;;14.54;45.03;99866.22;3157573;28;19931;-65
2023/10/10 01:23:54;;;;;;;;;;;;;;;14.51;44.93;99863.78;3157715;28;20428;-65
2023/10/10 01:25:41;;;;;;;;;;;;;;;14.49;44.88;99870.88;3151504;28;19925;-64
2023/10/10 01:27:21;;;;;;;;;;;;;;;14.48;45.13;99857.84;3150663;28;20607;-64
2023/10/10 01:28:51;;;;;;;;;;;;;;;14.47;44.99;99864.03;3155174;28;20435;-65
2023/10/10 01:30:43;;;;;;;;;;;;;;;14.46;45.05;99868.41;3156969;28;19928;-65
2023/10/10 01:32:17;;;;;;;;;;;;;;;14.44;44.97;99875.53;3150087;28;19924;-65
2023/10/10 01:33:47;;;;;;;;;;;;;;;14.44;44.84;99865.06;3153387;28;19935;-65
2023/10/10 01:35:23;;;;;;;;;;;;;;;14.45;45.11;99861.50;3153382;28;19924;-65
2023/10/10 01:36:57;;;;;;;;;;;;;;;14.47;45.04;99871.91;3157163;28;19930;-65
2023/10/10 01:38:44;;;;;;;;;;;;;;;14.45;45.00;99869.34;3157401;28;20420;-65
2023/10/10 01:40:16;;;;;;;;;;;;;;;14.43;44.96;99875.63;3157030;28;19925;-65
2023/10/10 01:41:48;;;;;;;;;;;;;;;14.42;44.95;99876.56;3157717;28;19928;-65
2023/10/10 01:43:20;;;;;;;;;;;;;;;14.44;44.95;99875.53;3154898;28;19974;-65
2023/10/10 01:44:51;;;;;;;;;;;;;;;14.45;44.98;99873.75;3151804;28;20023;-65
2023/10/10 01:46:27;;;;;;;;;;;;;;;14.46;45.34;99872.81;3157616;28;20053;-66
2023/10/10 01:48:02;;;;;;;;;;;;;;;14.42;45.14;99880.00;3153432;28;20397;-66
2023/10/10 01:49:35;;;;;;;;;;;;;;;14.40;45.21;99876.63;3155548;28;19934;-66
2023/10/10 01:51:08;;;;;;;;;;;;;;;14.39;45.25;99884.59;3155408;28;20003;-66
2023/10/10 01:52:45;;;;;;;;;;;;;;;14.39;45.38;99881.97;3151582;28;19964;-66
2023/10/10 01:54:18;;;;;;;;;;;;;;;14.39;45.10;99872.34;3157121;28;19973;-66
2023/10/10 01:55:50;;;;;;;;;;;;;;;14.43;45.24;99875.63;3146484;28;19924;-66
2023/10/10 01:57:24;;;;;;;;;;;;;;;14.45;45.27;99871.97;3139670;28;19932;-66
2023/10/10 01:58:55;;;;;;;;;;;;;;;14.48;44.91;99878.81;3149678;28;19963;-66
2023/10/10 02:00:27;;;;;;;;;;;;;;;14.49;45.12;99870.00;3159962;28;19924;-66
2023/10/10 02:01:58;;;;;;;;;;;;;;;14.51;45.01;99868.16;3154843;28;20061;-65
2023/10/10 02:03:31;;;;;;;;;;;;;;;14.49;45.13;99859.53;3156099;28;19981;-66
2023/10/10 02:05:04;;;;;;;;;;;;;;;14.48;45.13;99863.09;3159621;28;19935;-65
2023/10/10 02:06:37;;;;;;;;;;;;;;;14.51;45.27;99873.38;3148095;28;20033;-66
2023/10/10 02:08:11;;;;;;;;;;;;;;;14.54;44.95;99870.59;3158941;28;19971;-65
2023/10/10 02:09:44;;;;;;;;;;;;;;;14.54;45.06;99870.59;3156551;28;19935;-65
2023/10/10 02:11:14;;;;;;;;;;;;;;;14.49;45.39;99872.63;3157045;28;20046;-64
2023/10/10 02:12:46;;;;;;;;;;;;;;;14.43;45.68;99876.44;3160063;28;19924;-64
2023/10/10 02:14:18;;;;;;;;;;;;;;;14.37;45.74;99873.38;3159540;28;19924;-64
2023/10/10 02:15:51;;;;;;;;;;;;;;;14.32;45.91;99882.34;3159630;28;20410;-64
2023/10/10 02:17:24;;;;;;;;;;;;;;;14.30;45.75;99892.06;3158603;28;20014;-64
2023/10/10 02:18:59;;;;;;;;;;;;;;;14.29;45.72;99889.56;3155269;28;19928;-64
2023/10/10 02:20:34;;;;;;;;;;;;;;;14.19;46.63;99899.72;3159801;28;20022;-65
2023/10/10 02:22:22;;;;;;;;;;;;;;;14.10;46.90;99895.84;3159581;28;19974;-64
2023/10/10 02:23:59;;;;;;;;;;;;;;;14.03;47.20;99906.78;3159597;28;19934;-64
2023/10/10 02:25:39;;;;;;;;;;;;;;;13.93;47.77;99898.63;3153135;28;20367;-64
2023/10/10 02:27:13;;;;;;;;;;;;;;;13.86;48.02;99894.66;3151608;28;19931;-64
2023/10/10 02:28:47;;;;;;;;;;;;;;;13.82;47.81;99894.00;3155267;28;19924;-65
2023/10/10 02:30:34;;;;;;;;;;;;;;;13.83;47.61;99897.44;3159208;28;19924;-66
2023/10/10 02:32:10;;;;;;;;;;;;;;;13.80;47.81;99887.16;3153283;28;19928;-65
2023/10/10 02:33:48;;;;;;;;;;;;;;;13.77;47.79;99898.63;3151824;28;19977;-65
2023/10/10 02:35:26;;;;;;;;;;;;;;;13.76;47.96;99893.50;3159415;28;19924;-67
2023/10/10 02:37:13;;;;;;;;;;;;;;;13.71;48.28;99893.75;3159033;28;19928;-66
2023/10/10 02:38:55;;;;;;;;;;;;;;;13.70;48.07;99886.84;3159405;28;19930;-66
2023/10/10 02:40:32;;;;;;;;;;;;;;;13.74;47.82;99890.13;3159582;28;19963;-66
2023/10/10 02:42:13;;;;;;;;;;;;;;;13.77;47.87;99882.94;3159506;28;19935;-66
2023/10/10 02:43:54;;;;;;;;;;;;;;;13.81;47.61;99881.84;3153588;28;20404;-66
2023/10/10 02:45:28;;;;;;;;;;;;;;;13.83;47.57;99882.59;3159067;28;20393;-66
2023/10/10 02:46:58;;;;;;;;;;;;;;;13.78;47.83;99887.25;3154434;28;19924;-65
2023/10/10 02:48:34;;;;;;;;;;;;;;;13.73;47.65;99891.91;3148913;28;20583;-65
2023/10/10 02:50:10;;;;;;;;;;;;;;;13.75;47.79;99892.63;3144968;28;19994;-66
2023/10/10 02:51:43;;;;;;;;;;;;;;;13.78;47.64;99895.09;3153257;28;19928;-66
2023/10/10 02:53:18;;;;;;;;;;;;;;;13.77;47.84;99895.19;3156625;28;19947;-65
2023/10/10 02:54:55;;;;;;;;;;;;;;;13.78;47.50;99889.88;3152472;28;19928;-66
2023/10/10 02:56:29;;;;;;;;;;;;;;;13.78;47.95;99891.63;3156264;28;19924;-66
2023/10/10 02:58:02;;;;;;;;;;;;;;;13.74;47.78;99896.19;3158621;28;20011;-65
2023/10/10 02:59:38;;;;;;;;;;;;;;;13.71;47.93;99901.59;3150415;28;19925;-65
2023/10/10 03:01:19;;;;;;;;;;;;;;;13.70;47.86;99901.72;3156666;28;20341;-65
2023/10/10 03:02:50;;;;;;;;;;;;;;;13.67;48.01;99900.09;3157389;28;20022;-66
2023/10/10 03:04:22;;;;;;;;;;;;;;;13.64;47.75;99897.66;3159496;28;19928;-66
2023/10/10 03:05:54;;;;;;;;;;;;;;;13.56;48.10;99905.09;3159030;28;20027;-66
2023/10/10 03:07:29;;;;;;;;;;;;;;;13.48;48.04;99900.25;3159371;28;19931;-66
2023/10/10 03:09:12;;;;;;;;;;;;;;;13.37;48.28;99898.25;3159225;28;20394;-66
2023/10/10 03:10:46;;;;;;;;;;;;;;;13.31;48.42;99893.38;3156558;28;20416;-67
2023/10/10 03:12:18;;;;;;;;;;;;;;;13.25;48.41;99898.94;3159049;28;20321;-67
2023/10/10 03:13:54;;;;;;;;;;;;;;;13.18;48.44;99898.38;3158786;28;20002;-64
2023/10/10 03:15:28;;;;;;;;;;;;;;;13.09;48.65;99908.50;3159126;28;19998;-65
2023/10/10 03:17:05;;;;;;;;;;;;;;;13.03;48.44;99887.91;3149538;28;19935;-65
2023/10/10 03:18:36;;;;;;;;;;;;;;;12.96;48.65;99905.72;3154094;28;20377;-65
2023/10/10 03:20:24;;;;;;;;;;;;;;;12.87;48.75;99891.34;3148774;28;20078;-65
2023/10/10 03:22:20;;;;;;;;;;;;;;;12.78;49.21;99904.91;3145787;28;20449;-67
2023/10/10 03:23:54;;;;;;;;;;;;;;;12.70;49.20;99897.47;3156682;28;19925;-67
2023/10/10 03:25:28;;;;;;;;;;;;;;;12.65;49.01;99898.63;3159011;28;20384;-66
2023/10/10 03:27:01;;;;;;;;;;;;;;;12.62;49.28;99904.00;3153987;28;19924;-66
2023/10/10 03:28:41;;;;;;;;;;;;;;;12.55;49.50;99902.66;3158701;28;19928;-66
2023/10/10 03:30:20;;;;;;;;;;;;;;;12.56;49.36;99901.72;3158810;28;19954;-66
2023/10/10 03:32:18;;;;;;;;;;;;;;;12.58;49.20;99894.66;3149211;28;20216;-66
2023/10/10 03:34:03;;;;;;;;;;;;;;;12.62;49.06;99901.41;3155448;28;20307;-65
2023/10/10 03:35:51;;;;;;;;;;;;;;;12.65;48.75;99912.53;3158951;28;19931;-65
2023/10/10 03:37:30;;;;;;;;;;;;;;;12.67;48.77;99902.84;3158433;28;20478;-65
2023/10/10 03:39:24;;;;;;;;;;;;;;;12.68;48.68;99895.84;3158699;28;20015;-65
2023/10/10 05:24:51;;;;;;;;;;;;;;;13.24;49.81;99959.13;3140480;28;19925;-64
2023/10/10 05:26:22;;;;;;;;;;;;;;;13.27;49.78;99956.38;3145851;28;19929;-65
2023/10/10 05:27:58;;;;;;;;;;;;;;;13.30;49.51;99959.66;3157460;28;19925;-65
2023/10/10 05:29:33;;;;;;;;;;;;;;;13.33;49.35;99969.97;3157346;28;19931;-65
2023/10/10 05:31:09;;;;;;;;;;;;;;;13.36;49.62;99958.50;3145287;28;20050;-65
2023/10/10 05:32:54;;;;;;;;;;;;;;;13.37;49.26;99958.44;3146352;28;19932;-65
2023/10/10 05:34:27;;;;;;;;;;;;;;;13.41;49.18;99965.16;3134523;28;20011;-64
2023/10/10 05:35:58;;;;;;;;;;;;;;;13.45;49.20;99965.00;3154126;28;20015;-65
2023/10/10 05:37:31;;;;;;;;;;;;;;;13.46;49.45;99971.91;3157539;28;20437;-66
2023/10/10 05:39:03;;;;;;;;;;;;;;;13.49;49.32;99966.50;3157602;28;20009;-65
2023/10/10 05:40:35;;;;;;;;;;;;;;;13.54;49.08;99967.94;3157384;28;20381;-66
2023/10/10 05:42:08;;;;;;;;;;;;;;;13.58;49.25;99973.88;3157543;28;19981;-65
2023/10/10 05:43:40;;;;;;;;;;;;;;;13.60;49.40;99962.38;3152039;28;19974;-65
2023/10/10 05:45:13;;;;;;;;;;;;;;;13.60;49.32;99965.00;3154393;28;19924;-65
2023/10/10 05:46:45;;;;;;;;;;;;;;;13.60;49.54;99972.00;3145270;28;20077;-65
2023/10/10 05:48:15;;;;;;;;;;;;;;;13.62;49.43;99975.41;3150525;28;20029;-66
2023/10/10 05:49:47;;;;;;;;;;;;;;;13.69;49.41;99989.81;3152281;28;19928;-66
2023/10/10 05:51:19;;;;;;;;;;;;;;;13.75;49.08;99980.78;3157329;28;20317;-64
2023/10/10 05:52:50;;;;;;;;;;;;;;;13.83;48.91;99976.81;3142869;28;19925;-65
2023/10/10 05:54:23;;;;;;;;;;;;;;;13.89;48.83;99976.47;3139428;28;20410;-66
2023/10/10 05:55:58;;;;;;;;;;;;;;;13.95;48.71;99984.91;3141552;28;20431;-67
2023/10/10 05:57:30;;;;;;;;;;;;;;;13.98;48.74;99980.34;3156201;28;19924;-67
2023/10/10 05:59:02;;;;;;;;;;;;;;;14.04;48.76;99985.22;3155217;28;20365;-66
2023/10/10 06:00:39;;;;;;;;;;;;;;;14.11;48.28;99983.13;3151057;28;19929;-65
2023/10/10 06:02:11;;;;;;;;;;;;;;;14.20;48.24;99985.22;3151625;28;20313;-66
2023/10/10 06:03:52;;;;;;;;;;;;;;;14.26;48.29;99990.13;3157027;28;19928;-65
2023/10/10 06:05:29;;;;;;;;;;;;;;;14.34;47.94;99990.53;3157327;28;19924;-65
2023/10/10 06:07:03;;;;;;;;;;;;;;;14.40;47.88;99991.91;3156860;28;19931;-65
2023/10/10 06:08:38;;;;;;;;;;;;;;;14.45;48.01;99983.81;3157052;28;19971;-64
2023/10/10 06:10:28;;;;;;;;;;;;;;;14.48;47.85;99983.63;3150758;28;19954;-66
2023/10/10 06:12:13;;;;;;;;;;;;;;;14.57;47.60;99988.34;3135740;28;19978;-67
2023/10/10 06:13:58;;;;;;;;;;;;;;;14.63;47.74;99992.41;3157179;28;20356;-67
2023/10/10 06:15:35;;;;;;;;;;;;;;;14.66;47.68;99979.94;3151379;28;19943;-68
2023/10/10 06:17:09;;;;;;;;;;;;;;;14.70;47.87;99991.09;3153232;28;21433;-68
2023/10/10 06:20:44;;;;;;;;;;;;;;;14.77;47.64;99982.78;3155603;28;20313;-67
2023/10/10 06:22:19;;;;;;;;;;;;;;;14.85;47.40;99989.34;3157158;28;20298;-67
2023/10/10 06:23:53;;;;;;;;;;;;;;;14.89;47.54;99985.59;3142201;28;19947;-68
2023/10/10 06:25:30;;;;;;;;;;;;;;;14.91;47.36;99991.63;3146226;28;19931;-67
2023/10/10 06:27:02;;;;;;;;;;;;;;;14.90;47.70;99993.38;3140025;28;19968;-68
2023/10/10 06:28:37;;;;;;;;;;;;;;;14.89;47.85;99988.22;3153833;28;19936;-67
2023/10/10 06:30:17;;;;;;;;;;;;;;;14.90;47.93;99982.03;3147825;28;20314;-68
2023/10/10 06:31:52;;;;;;;;;;;;;;;14.91;47.92;99989.84;3151015;28;19929;-65
2023/10/10 06:33:29;;;;;;;;;;;;;;;14.94;48.10;99994.88;3153510;28;19939;-66
2023/10/10 06:35:27;;;;;;;;;;;;;;;14.96;47.81;100000.03;3159261;28;19960;-66
2023/10/10 06:37:43;;;;;;;;;;;;;;;15.01;47.66;99997.97;3158318;28;19978;-67
2023/10/10 06:39:33;;;;;;;;;;;;;;;15.07;47.69;99986.28;3159055;28;19924;-65
2023/10/10 06:43:33;;;;;;;;;;;;;;;15.14;47.82;99991.03;3140103;28;19924;-67
2023/10/10 06:45:24;;;;;;;;;;;;;;;15.21;47.62;99995.00;3134636;28;19933;-67
2023/10/10 06:49:25;;;;;;;;;;;;;;;15.38;47.47;99987.84;3112450;28;19929;-69
2023/10/10 06:51:10;;;;;;;;;;;;;;;15.46;47.24;99988.22;3147924;28;19928;-71
2023/10/10 06:54:44;;;;;;;;;;;;;;;15.52;47.47;99992.25;3118561;28;19940;-70
2023/10/10 06:56:17;;;;;;;;;;;;;;;15.53;47.52;99999.16;3142076;28;20015;-70
2023/10/10 06:57:58;;;;;;;;;;;;;;;15.52;47.72;99995.72;3140402;28;20083;-70
2023/10/10 06:59:30;;;;;;;;;;;;;;;15.54;47.87;99993.00;3139900;28;19977;-70
2023/10/10 07:01:04;;;;;;;;;;;;;;;15.57;47.79;100001.53;3154839;28;19924;-71
2023/10/10 07:03:03;;;;;;;;;;;;;;;;;;;;;
2023/10/10 07:04:39;;;;;;;;;;;;;;;15.60;47.90;99998.69;3156656;28;19928;-68
2023/10/10 07:06:13;;;;;;;;;;;;;;;15.60;47.92;99990.81;3146085;28;19924;-68
2023/10/10 07:07:58;;;;;;;;;;;;;;;15.65;48.02;100004.50;3150772;28;19944;-67
2023/10/10 07:09:30;;;;;;;;;;;;;;;15.73;47.53;99995.31;3147736;28;19935;-67
2023/10/10 07:11:01;;;;;;;;;;;;;;;15.80;47.65;99997.47;3146671;28;19924;-66
2023/10/10 07:12:34;;;;;;;;;;;;;;;15.89;47.37;100003.94;3159060;28;20032;-67
2023/10/10 07:14:07;;;;;;;;;;;;;;;15.98;47.35;100002.50;3147457;28;19982;-70
2023/10/10 07:15:41;;;;;;;;;;;;;;;16.07;47.18;99986.16;3146195;28;19924;-68
2023/10/10 07:17:12;;;;;;;;;;;;;;;16.11;47.23;99987.63;3146159;28;19931;-68
2023/10/10 07:18:44;;;;;;;;;;;;;;;16.23;47.12;100001.75;3152950;28;20329;-67
2023/10/10 07:22:04;;;;;;;;;;;;;;;16.31;47.37;99994.19;3159010;28;19928;-69
2023/10/10 07:23:39;;;;;;;;;;;;;;;16.27;47.49;99996.19;3158743;28;19993;-69
2023/10/10 07:25:18;;;;;;;;;;;;;;;16.17;47.54;99995.09;3157726;28;20386;-67
2023/10/10 07:26:59;;;;;;;;;;;;;;;16.12;47.50;99994.56;3143482;28;19925;-68
2023/10/10 07:28:29;;;;;;;;;;;;;;;16.08;47.56;99995.69;3150319;28;19989;-68
2023/10/10 07:30:08;;;;;;;;;;;;;;;16.07;47.84;100001.91;3158352;28;20359;-68
2023/10/10 07:31:40;;;;;;;;;;;;;;;16.11;47.55;99998.13;3156604;28;19939;-69
2023/10/10 07:33:13;;;;;;;;;;;;;;;16.20;47.35;100004.56;3150242;28;20436;-68
2023/10/10 07:34:49;;;;;;;;;;;;;;;16.28;47.28;100002.28;3158791;28;20562;-69
2023/10/10 07:36:24;;;;;;;;;;;;;;;16.37;47.19;99999.88;3150270;28;19928;-69
2023/10/10 07:37:58;;;;;;;;;;;;;;;16.48;46.99;99999.19;3145099;28;19932;-68
2023/10/10 07:39:32;;;;;;;;;;;;;;;16.58;46.80;100007.28;3149119;28;20007;-68
2023/10/10 07:41:04;;;;;;;;;;;;;;;16.68;46.75;100011.00;3158739;28;20338;-68
2023/10/10 07:42:37;;;;;;;;;;;;;;;16.77;46.70;99999.91;3158340;28;19938;-69
2023/10/10 07:44:08;;;;;;;;;;;;;;;16.88;46.53;100007.03;3150001;28;19929;-69
2023/10/10 07:45:43;;;;;;;;;;;;;;;16.98;46.40;100000.22;3157000;28;19931;-65
2023/10/10 07:49:08;;;;;;;;;;;;;;;17.28;46.30;99994.63;3152680;28;20027;-68
2023/10/10 07:50:47;;;;;;;;;;;;;;;17.44;45.93;99991.75;3146497;28;19924;-67
2023/10/10 07:52:20;;;;;;;;;;;;;;;17.59;45.92;99987.19;3153538;28;20377;-67
2023/10/10 07:53:58;;;;;;;;;;;;;;;17.79;45.76;99998.13;3154845;28;19927;-67
2023/10/10 07:55:34;;;;;;;;;;;;;;;18.01;45.50;99992.13;3149136;28;20385;-67
2023/10/10 07:57:07;;;;;;;;;;;;;;;18.23;45.42;99991.41;3158379;28;20361;-67
2023/10/10 07:58:49;;;;;;;;;;;;;;;18.42;45.13;99984.63;3152845;28;19929;-67
2023/10/10 08:00:26;;;;;;;;;;;;;;;18.62;45.18;99992.84;3151917;28;20419;-67
2023/10/10 08:01:59;;;;;;;;;;;;;;;18.79;44.64;99995.09;3152899;28;20409;-66
2023/10/10 08:03:31;;;;;;;;;;;;;;;18.92;44.75;99991.50;3151150;28;20363;-66
2023/10/10 08:05:09;;;;;;;;;;;;;;;18.93;44.23;99991.41;3158624;28;20019;-67
2023/10/10 08:06:44;;;;;;;;;;;;;;;18.92;44.32;99988.88;3143407;28;19954;-67
2023/10/10 08:10:38;;;;;;;;;;;;;;;19.00;43.93;99991.75;3157071;28;20468;-67
2023/10/10 08:12:10;;;;;;;;;;;;;;;18.99;44.34;99992.69;3157928;28;19928;-69
2023/10/10 08:13:48;;;;;;;;;;;;;;;19.13;44.14;99989.84;3158651;28;19984;-69
2023/10/10 08:15:19;;;;;;;;;;;;;;;19.35;44.08;99990.81;3151929;28;20320;-69
2023/10/10 08:16:58;;;;;;;;;;;;;;;19.62;43.99;99985.97;3153659;28;20061;-68
2023/10/10 08:22:13;;;;;;;;;;;;;;;21.04;42.49;99972.53;3155244;28;19932;-69
2023/10/10 08:23:46;;;;;;;;;;;;;;;21.39;42.02;99976.63;3158078;28;19924;-69
2023/10/10 08:25:17;;;;;;;;;;;;;;;21.62;41.87;99978.03;3146750;28;19924;-70
2023/10/10 08:26:51;;;;;;;;;;;;;;;21.79;41.53;99969.44;3155652;28;20392;-70
2023/10/10 08:28:21;;;;;;;;;;;;;;;21.82;41.34;99976.28;3157177;28;19924;-71
2023/10/10 08:30:06;;;;;;;;;;;;;;;21.84;41.50;99974.34;3154351;28;20474;-70
2023/10/10 08:54:51;;;;;;;;;;;;;;;23.70;38.51;99963.22;3076129;28;19922;-68
2023/10/10 08:56:22;;;;;;;;;;;;;;;23.66;38.46;99972.44;3080720;28;19965;-70
2023/10/10 09:03:48;;;;;;;;;;;;;;;23.33;38.99;99972.06;3093314;28;19917;-69
2023/10/10 09:05:19;;;;;;;;;;;;;;;23.36;39.03;99974.41;3119025;28;19932;-69
2023/10/10 09:06:58;;;;;;;;;;;;;;;23.41;39.05;99973.16;3118754;28;20004;-69
2023/10/10 09:08:28;;;;;;;;;;;;;;;23.43;39.00;99977.34;3131269;28;20344;-69
2023/10/10 09:10:05;;;;;;;;;;;;;;;23.47;39.31;99968.06;3142762;28;19924;-69
2023/10/10 09:11:37;;;;;;;;;;;;;;;23.49;39.15;99968.78;3150259;28;19990;-70
2023/10/10 09:13:09;;;;;;;;;;;;;;;23.59;39.04;99966.06;3151069;28;19935;-68
2023/10/10 09:14:41;;;;;;;;;;;;;;;23.74;38.60;99963.75;3149521;28;19924;-69
2023/10/10 09:16:13;;;;;;;;;;;;;;;23.97;38.35;99965.00;3156380;28;19997;-70
2023/10/10 09:17:45;;;;;;;;;;;;;;;24.13;38.07;99963.47;3152480;28;20006;-67
2023/10/10 09:19:17;;;;;;;;;;;;;;;24.23;38.20;99969.56;3157169;28;19924;-68
2023/10/10 09:20:48;;;;;;;;;;;;;;;24.35;37.93;99978.13;3157117;28;19975;-68
2023/10/10 09:22:29;;;;;;;;;;;;;;;24.49;37.81;99974.94;3156161;28;20453;-68
2023/10/10 09:24:26;;;;;;;;;;;;;;;24.62;37.31;99969.22;3157352;28;19971;-69
2023/10/10 09:26:18;;;;;;;;;;;;;;;24.90;37.11;99972.56;3150043;28;20439;-70
2023/10/10 09:27:58;;;;;;;;;;;;;;;25.25;36.80;99968.09;3144754;28;20018;-67
2023/10/10 09:29:32;;;;;;;;;;;;;;;25.58;36.23;99956.56;3156157;28;19924;-66
2023/10/10 09:31:12;;;;;;;;;;;;;;;25.94;35.86;99966.16;3157362;28;19924;-66
2023/10/10 09:32:44;;;;;;;;;;;;;;;26.19;35.67;99972.38;3146894;28;19932;-66
2023/10/10 09:34:22;;;;;;;;;;;;;;;26.23;35.51;99965.69;3158202;28;19927;-66
2023/10/10 09:35:58;;;;;;;;;;;;;;;26.15;35.40;99965.69;3158142;28;19936;-66
2023/10/10 09:37:34;;;;;;;;;;;;;;;26.10;35.48;99969.69;3132623;28;20406;-65
2023/10/10 09:39:14;;;;;;;;;;;;;;;26.13;35.10;99970.38;3132958;28;20023;-66
2023/10/10 09:40:47;;;;;;;;;;;;;;;26.04;34.95;99958.88;3135679;28;20505;-65
2023/10/10 09:42:29;;;;;;;;;;;;;;;25.99;34.85;99961.19;3133109;28;19925;-66
2023/10/10 09:44:27;;;;;;;;;;;;;;;26.05;35.00;99965.84;3140532;28;19954;-66
2023/10/10 09:45:58;;;;;;;;;;;;;;;26.19;35.33;99959.88;3142187;28;19924;-65
2023/10/10 09:47:43;;;;;;;;;;;;;;;26.36;34.84;99960.72;3144779;28;20015;-63
2023/10/10 09:49:29;;;;;;;;;;;;;;;26.37;34.61;99962.38;3155296;28;20445;-65
2023/10/10 09:51:15;;;;;;;;;;;;;;;26.52;34.39;99962.56;3146764;28;20436;-70
2023/10/10 09:52:50;;;;;;;;;;;;;;;26.72;34.16;99961.19;3156369;28;20422;-71
2023/10/10 09:54:25;;;;;;;;;;;;;;;26.83;34.30;99970.69;3148217;28;19924;-70
2023/10/10 09:56:01;;;;;;;;;;;;;;;26.96;34.11;99967.50;3148756;28;19935;-70
2023/10/10 09:57:34;;;;;;;;;;;;;;;26.96;33.94;99973.66;3152348;28;19928;-70
2023/10/10 09:59:07;;;;;;;;;;;;;;;26.96;33.98;99962.97;3157164;28;19932;-69
2023/10/10 10:00:45;;;;;;;;;;;;;;;26.88;33.82;99968.34;3157789;28;19928;-69
2023/10/10 10:02:40;;;;;;;;;;;;;;;26.81;33.88;99966.53;3152253;28;20027;-68
2023/10/10 10:04:11;;;;;;;;;;;;;;;26.71;34.22;99970.22;3136954;28;19924;-69
2023/10/10 10:05:43;;;;;;;;;;;;;;;26.75;34.01;99963.53;3157234;28;19929;-67
2023/10/10 10:07:24;;;;;;;;;;;;;;;26.86;34.04;99961.47;3157946;28;19930;-65
2023/10/10 10:09:08;;;;;;;;;;;;;;;26.93;33.88;99957.16;3159867;28;19924;-66
2023/10/10 10:10:49;;;;;;;;;;;;;;;26.93;33.64;99941.94;3144017;28;19948;-67
2023/10/10 10:12:36;;;;;;;;;;;;;;;27.20;33.93;99953.25;3144898;28;19931;-67
2023/10/10 10:14:17;;;;;;;;;;;;;;;27.42;33.43;99951.66;3160269;28;19924;-67
2023/10/10 10:16:15;;;;;;;;;;;;;;;27.51;33.16;99965.78;3159794;28;20385;-68
2023/10/10 10:17:53;;;;;;;;;;;;;;;27.52;33.34;99948.75;3152772;28;20332;-69
2023/10/10 10:19:28;;;;;;;;;;;;;;;27.51;32.99;99950.59;3153845;28;20420;-72
2023/10/10 10:21:18;;;;;;;;;;;;;;;27.54;33.05;99952.06;3154308;28;19931;-67
2023/10/10 10:22:53;;;;;;;;;;;;;;;27.51;33.29;99952.41;3153723;28;20413;-67
2023/10/10 10:24:30;;;;;;;;;;;;;;;27.44;32.87;99950.44;3153305;28;19924;-66
2023/10/10 10:26:08;;;;;;;;;;;;;;;27.47;33.13;99951.13;3151093;28;19928;-66
2023/10/10 10:27:41;;;;;;;;;;;;;;;27.49;33.50;99952.59;3151123;28;19924;-66
2023/10/10 10:29:28;;;;;;;;;;;;;;;27.53;33.18;99939.72;3149190;28;20487;-67
2023/10/10 10:31:04;;;;;;;;;;;;;;;27.53;33.25;99943.22;3134517;28;19928;-66
2023/10/10 10:32:37;;;;;;;;;;;;;;;27.58;32.83;99934.69;3144970;28;19924;-66
2023/10/10 10:34:15;;;;;;;;;;;;;;;27.60;33.12;99938.84;3146628;28;19947;-66
2023/10/10 10:36:14;;;;;;;;;;;;;;;27.56;32.97;99936.69;3147194;28;19929;-66
2023/10/10 10:37:54;;;;;;;;;;;;;;;27.49;33.31;99949.94;3136034;28;19924;-66
2023/10/10 10:39:25;;;;;;;;;;;;;;;27.32;33.17;99945.66;3144794;28;20023;-66
2023/10/10 10:41:07;;;;;;;;;;;;;;;27.19;33.20;99951.59;3149306;28;20401;-66
2023/10/10 10:42:46;;;;;;;;;;;;;;;26.97;33.29;99956.63;3145171;28;19929;-66
2023/10/10 10:44:29;;;;;;;;;;;;;;;26.82;33.71;99954.81;3147917;28;20583;-65
2023/10/10 10:46:12;;;;;;;;;;;;;;;26.59;34.05;99952.03;3143729;28;20398;-65
2023/10/10 10:47:59;;;;;;;;;;;;;;;26.47;33.97;99947.03;3145460;28;19924;-66
2023/10/10 10:49:37;;;;;;;;;;;;;;;26.40;34.00;99943.34;3139997;28;20018;-66
2023/10/10 10:51:23;;;;;;;;;;;;;;;26.31;34.31;99949.69;3146509;28;19925;-66
2023/10/10 10:52:58;;;;;;;;;;;;;;;26.23;34.25;99941.69;3151677;28;19924;-68
2023/10/10 10:54:36;;;;;;;;;;;;;;;26.16;34.38;99944.19;3152447;28;19924;-69